sensor_id;sensor_type;location;lat;lon;timestamp;P1;durP1;ratioP1;P2;durP2;ratioP2
6825;SDS011;3451;52.476;13.316;2023-02-15T00:01:13;38.17;;;20.63;;
6825;SDS011;3451;52.476;13.316;2023-02-15T00:03:40;37.27;;;20.77;;
6825;SDS011;3451;52.476;13.316;2023-02-15T00:06:06;37.77;;;20.37;;
6825;SDS011;3451;52.476;13.316;2023-02-15T00:08:33;37.97;;;20.57;;
6825;SDS011;3451;52.476;13.316;2023-02-15T00:11:03;35.37;;;20.60;;
6825;SDS011;3451;52.476;13.316;2023-02-15T00:13:29;43.33;;;21.40;;
6825;SDS011;3451;52.476;13.316;2023-02-15T00:16:00;38.47;;;20.47;;
6825;SDS011;3451;52.476;13.316;2023-02-15T00:18:27;37.67;;;20.97;;
6825;SDS011;3451;52.476;13.316;2023-02-15T00:20:58;39.50;;;21.33;;
6825;SDS011;3451;52.476;13.316;2023-02-15T00:23:25;41.60;;;20.30;;
6825;SDS011;3451;52.476;13.316;2023-02-15T00:25:52;36.50;;;20.83;;
6825;SDS011;3451;52.476;13.316;2023-02-15T00:28:18;37.67;;;20.50;;
6825;SDS011;3451;52.476;13.316;2023-02-15T00:30:44;38.70;;;21.40;;
6825;SDS011;3451;52.476;13.316;2023-02-15T00:33:10;40.13;;;21.63;;
6825;SDS011;3451;52.476;13.316;2023-02-15T00:35:37;38.60;;;20.67;;
6825;SDS011;3451;52.476;13.316;2023-02-15T00:38:03;36.70;;;20.13;;
6825;SDS011;3451;52.476;13.316;2023-02-15T00:40:29;36.37;;;20.53;;
6825;SDS011;3451;52.476;13.316;2023-02-15T00:42:55;35.20;;;20.67;;
6825;SDS011;3451;52.476;13.316;2023-02-15T00:45:22;42.30;;;21.03;;
6825;SDS011;3451;52.476;13.316;2023-02-15T00:47:48;36.63;;;19.60;;
6825;SDS011;3451;52.476;13.316;2023-02-15T00:50:14;38.80;;;22.27;;
6825;SDS011;3451;52.476;13.316;2023-02-15T00:52:40;40.67;;;21.83;;
6825;SDS011;3451;52.476;13.316;2023-02-15T00:55:07;39.63;;;21.87;;
6825;SDS011;3451;52.476;13.316;2023-02-15T00:57:33;39.93;;;20.97;;
6825;SDS011;3451;52.476;13.316;2023-02-15T00:59:59;40.50;;;21.77;;
6825;SDS011;3451;52.476;13.316;2023-02-15T01:02:25;38.33;;;21.20;;
6825;SDS011;3451;52.476;13.316;2023-02-15T01:04:52;41.67;;;22.30;;
6825;SDS011;3451;52.476;13.316;2023-02-15T01:07:18;43.73;;;22.77;;
6825;SDS011;3451;52.476;13.316;2023-02-15T01:09:45;39.57;;;21.20;;
6825;SDS011;3451;52.476;13.316;2023-02-15T01:12:11;42.30;;;20.77;;
6825;SDS011;3451;52.476;13.316;2023-02-15T01:14:37;39.40;;;21.40;;
6825;SDS011;3451;52.476;13.316;2023-02-15T01:17:03;46.40;;;21.80;;
6825;SDS011;3451;52.476;13.316;2023-02-15T01:19:29;45.77;;;22.77;;
6825;SDS011;3451;52.476;13.316;2023-02-15T01:21:56;46.47;;;23.53;;
6825;SDS011;3451;52.476;13.316;2023-02-15T01:24:22;44.43;;;23.60;;
6825;SDS011;3451;52.476;13.316;2023-02-15T01:26:48;49.70;;;24.07;;
6825;SDS011;3451;52.476;13.316;2023-02-15T01:29:14;47.33;;;23.87;;
6825;SDS011;3451;52.476;13.316;2023-02-15T01:31:41;42.23;;;23.20;;
6825;SDS011;3451;52.476;13.316;2023-02-15T01:34:07;44.03;;;23.37;;
6825;SDS011;3451;52.476;13.316;2023-02-15T01:36:33;44.43;;;23.60;;
6825;SDS011;3451;52.476;13.316;2023-02-15T01:39:00;44.03;;;23.53;;
6825;SDS011;3451;52.476;13.316;2023-02-15T01:41:26;44.47;;;23.50;;
6825;SDS011;3451;52.476;13.316;2023-02-15T01:43:54;46.23;;;23.43;;
6825;SDS011;3451;52.476;13.316;2023-02-15T01:46:23;42.50;;;23.37;;
6825;SDS011;3451;52.476;13.316;2023-02-15T01:48:52;47.63;;;24.37;;
6825;SDS011;3451;52.476;13.316;2023-02-15T01:51:20;43.60;;;22.90;;
6825;SDS011;3451;52.476;13.316;2023-02-15T01:53:51;44.30;;;23.07;;
6825;SDS011;3451;52.476;13.316;2023-02-15T01:56:25;42.93;;;22.63;;
6825;SDS011;3451;52.476;13.316;2023-02-15T01:58:54;51.33;;;24.90;;
6825;SDS011;3451;52.476;13.316;2023-02-15T02:01:21;49.80;;;24.97;;
6825;SDS011;3451;52.476;13.316;2023-02-15T02:04:06;47.30;;;24.80;;
6825;SDS011;3451;52.476;13.316;2023-02-15T02:06:35;44.43;;;23.17;;
6825;SDS011;3451;52.476;13.316;2023-02-15T02:09:02;50.63;;;25.33;;
6825;SDS011;3451;52.476;13.316;2023-02-15T02:11:28;52.50;;;25.57;;
6825;SDS011;3451;52.476;13.316;2023-02-15T02:13:54;55.23;;;26.10;;
6825;SDS011;3451;52.476;13.316;2023-02-15T02:26:11;50.03;;;25.07;;
6825;SDS011;3451;52.476;13.316;2023-02-15T02:33:50;50.60;;;25.80;;
6825;SDS011;3451;52.476;13.316;2023-02-15T02:41:28;53.00;;;26.40;;
6825;SDS011;3451;52.476;13.316;2023-02-15T02:46:35;48.33;;;24.93;;
6825;SDS011;3451;52.476;13.316;2023-02-15T02:49:03;47.10;;;25.40;;
6825;SDS011;3451;52.476;13.316;2023-02-15T02:51:29;47.27;;;25.97;;
6825;SDS011;3451;52.476;13.316;2023-02-15T02:53:56;51.03;;;26.70;;
6825;SDS011;3451;52.476;13.316;2023-02-15T02:56:27;50.90;;;25.80;;
6825;SDS011;3451;52.476;13.316;2023-02-15T02:58:59;51.13;;;26.90;;
6825;SDS011;3451;52.476;13.316;2023-02-15T03:01:32;49.40;;;25.97;;
6825;SDS011;3451;52.476;13.316;2023-02-15T03:04:01;57.33;;;28.00;;
6825;SDS011;3451;52.476;13.316;2023-02-15T03:06:34;52.60;;;26.73;;
6825;SDS011;3451;52.476;13.316;2023-02-15T03:09:10;54.07;;;27.93;;
6825;SDS011;3451;52.476;13.316;2023-02-15T03:11:41;53.47;;;27.60;;
6825;SDS011;3451;52.476;13.316;2023-02-15T03:14:08;54.33;;;27.83;;
6825;SDS011;3451;52.476;13.316;2023-02-15T03:16:35;61.40;;;27.90;;
6825;SDS011;3451;52.476;13.316;2023-02-15T03:19:03;59.07;;;31.03;;
6825;SDS011;3451;52.476;13.316;2023-02-15T03:21:38;65.20;;;31.10;;
6825;SDS011;3451;52.476;13.316;2023-02-15T03:24:10;58.40;;;28.83;;
6825;SDS011;3451;52.476;13.316;2023-02-15T03:26:40;60.17;;;30.27;;
6825;SDS011;3451;52.476;13.316;2023-02-15T03:29:08;65.73;;;31.33;;
6825;SDS011;3451;52.476;13.316;2023-02-15T03:31:37;63.03;;;29.67;;
6825;SDS011;3451;52.476;13.316;2023-02-15T03:34:05;66.07;;;32.10;;
6825;SDS011;3451;52.476;13.316;2023-02-15T03:39:07;67.80;;;30.93;;
6825;SDS011;3451;52.476;13.316;2023-02-15T03:41:42;63.10;;;30.77;;
6825;SDS011;3451;52.476;13.316;2023-02-15T03:44:13;63.03;;;31.17;;
6825;SDS011;3451;52.476;13.316;2023-02-15T03:46:42;64.00;;;30.13;;
6825;SDS011;3451;52.476;13.316;2023-02-15T03:51:48;57.30;;;29.63;;
6825;SDS011;3451;52.476;13.316;2023-02-15T03:54:25;65.30;;;32.07;;
6825;SDS011;3451;52.476;13.316;2023-02-15T03:57:19;63.03;;;30.53;;
6825;SDS011;3451;52.476;13.316;2023-02-15T04:00:05;69.37;;;31.37;;
6825;SDS011;3451;52.476;13.316;2023-02-15T04:05:32;71.47;;;31.60;;
6825;SDS011;3451;52.476;13.316;2023-02-15T04:07:58;60.97;;;29.37;;
6825;SDS011;3451;52.476;13.316;2023-02-15T04:10:25;65.63;;;30.60;;
6825;SDS011;3451;52.476;13.316;2023-02-15T04:13:09;68.87;;;31.50;;
6825;SDS011;3451;52.476;13.316;2023-02-15T04:15:36;64.93;;;31.23;;
6825;SDS011;3451;52.476;13.316;2023-02-15T04:18:20;61.43;;;30.00;;
6825;SDS011;3451;52.476;13.316;2023-02-15T04:20:47;67.10;;;31.93;;
6825;SDS011;3451;52.476;13.316;2023-02-15T04:23:32;64.13;;;30.93;;
6825;SDS011;3451;52.476;13.316;2023-02-15T04:26:16;60.70;;;29.73;;
6825;SDS011;3451;52.476;13.316;2023-02-15T04:28:45;62.23;;;29.07;;
6825;SDS011;3451;52.476;13.316;2023-02-15T04:31:11;64.13;;;30.33;;
6825;SDS011;3451;52.476;13.316;2023-02-15T04:33:37;61.60;;;30.27;;
6825;SDS011;3451;52.476;13.316;2023-02-15T04:36:04;65.37;;;29.90;;
6825;SDS011;3451;52.476;13.316;2023-02-15T04:38:30;71.00;;;31.17;;
6825;SDS011;3451;52.476;13.316;2023-02-15T04:40:57;66.93;;;30.27;;
6825;SDS011;3451;52.476;13.316;2023-02-15T04:43:23;62.63;;;30.07;;
6825;SDS011;3451;52.476;13.316;2023-02-15T04:45:50;67.50;;;30.77;;
6825;SDS011;3451;52.476;13.316;2023-02-15T04:48:17;62.33;;;32.10;;
6825;SDS011;3451;52.476;13.316;2023-02-15T04:50:43;70.63;;;31.57;;
6825;SDS011;3451;52.476;13.316;2023-02-15T04:53:10;70.93;;;31.90;;
6825;SDS011;3451;52.476;13.316;2023-02-15T04:55:36;68.07;;;32.10;;
6825;SDS011;3451;52.476;13.316;2023-02-15T04:58:03;64.30;;;29.47;;
6825;SDS011;3451;52.476;13.316;2023-02-15T05:00:29;71.60;;;30.77;;
6825;SDS011;3451;52.476;13.316;2023-02-15T05:02:55;64.07;;;30.30;;
6825;SDS011;3451;52.476;13.316;2023-02-15T05:05:22;66.50;;;30.60;;
6825;SDS011;3451;52.476;13.316;2023-02-15T05:07:48;69.53;;;31.47;;
6825;SDS011;3451;52.476;13.316;2023-02-15T05:10:14;67.43;;;30.23;;
6825;SDS011;3451;52.476;13.316;2023-02-15T05:12:40;70.37;;;31.40;;
6825;SDS011;3451;52.476;13.316;2023-02-15T05:15:07;68.57;;;30.37;;
6825;SDS011;3451;52.476;13.316;2023-02-15T05:17:33;65.63;;;29.43;;
6825;SDS011;3451;52.476;13.316;2023-02-15T05:20:00;69.27;;;31.40;;
6825;SDS011;3451;52.476;13.316;2023-02-15T05:22:26;68.40;;;30.47;;
6825;SDS011;3451;52.476;13.316;2023-02-15T05:24:52;71.73;;;31.77;;
6825;SDS011;3451;52.476;13.316;2023-02-15T05:27:37;67.50;;;30.73;;
6825;SDS011;3451;52.476;13.316;2023-02-15T05:30:22;64.53;;;30.03;;
6825;SDS011;3451;52.476;13.316;2023-02-15T05:32:49;69.17;;;30.30;;
6825;SDS011;3451;52.476;13.316;2023-02-15T05:35:15;65.80;;;31.03;;
6825;SDS011;3451;52.476;13.316;2023-02-15T05:37:42;70.20;;;31.70;;
6825;SDS011;3451;52.476;13.316;2023-02-15T05:40:08;73.97;;;30.53;;
6825;SDS011;3451;52.476;13.316;2023-02-15T05:42:34;75.37;;;31.00;;
6825;SDS011;3451;52.476;13.316;2023-02-15T05:45:01;68.30;;;30.80;;
6825;SDS011;3451;52.476;13.316;2023-02-15T05:47:27;71.50;;;30.90;;
6825;SDS011;3451;52.476;13.316;2023-02-15T05:49:53;78.53;;;31.73;;
6825;SDS011;3451;52.476;13.316;2023-02-15T05:52:19;71.17;;;30.97;;
6825;SDS011;3451;52.476;13.316;2023-02-15T05:54:46;71.83;;;31.50;;
6825;SDS011;3451;52.476;13.316;2023-02-15T05:57:12;79.23;;;31.33;;
6825;SDS011;3451;52.476;13.316;2023-02-15T05:59:38;76.70;;;31.33;;
6825;SDS011;3451;52.476;13.316;2023-02-15T06:02:04;75.60;;;33.13;;
6825;SDS011;3451;52.476;13.316;2023-02-15T06:04:32;78.47;;;32.53;;
6825;SDS011;3451;52.476;13.316;2023-02-15T06:06:58;81.87;;;33.53;;
6825;SDS011;3451;52.476;13.316;2023-02-15T06:09:25;77.27;;;32.27;;
6825;SDS011;3451;52.476;13.316;2023-02-15T06:11:51;75.33;;;31.27;;
6825;SDS011;3451;52.476;13.316;2023-02-15T06:14:17;73.23;;;31.80;;
6825;SDS011;3451;52.476;13.316;2023-02-15T06:16:44;77.37;;;32.40;;
6825;SDS011;3451;52.476;13.316;2023-02-15T06:19:10;81.53;;;31.97;;
6825;SDS011;3451;52.476;13.316;2023-02-15T06:21:36;89.47;;;32.07;;
6825;SDS011;3451;52.476;13.316;2023-02-15T06:24:03;81.43;;;32.10;;
6825;SDS011;3451;52.476;13.316;2023-02-15T06:26:29;75.73;;;30.37;;
6825;SDS011;3451;52.476;13.316;2023-02-15T06:28:55;107.90;;;32.57;;
6825;SDS011;3451;52.476;13.316;2023-02-15T06:31:21;77.37;;;30.37;;
6825;SDS011;3451;52.476;13.316;2023-02-15T06:33:48;78.47;;;31.73;;
6825;SDS011;3451;52.476;13.316;2023-02-15T06:36:14;87.43;;;30.80;;
6825;SDS011;3451;52.476;13.316;2023-02-15T06:38:40;77.00;;;31.30;;
6825;SDS011;3451;52.476;13.316;2023-02-15T06:41:07;82.63;;;31.13;;
6825;SDS011;3451;52.476;13.316;2023-02-15T06:43:33;78.17;;;30.90;;
6825;SDS011;3451;52.476;13.316;2023-02-15T06:46:00;95.50;;;32.20;;
6825;SDS011;3451;52.476;13.316;2023-02-15T06:48:27;99.40;;;31.43;;
6825;SDS011;3451;52.476;13.316;2023-02-15T06:50:53;121.93;;;31.07;;
6825;SDS011;3451;52.476;13.316;2023-02-15T06:53:20;82.73;;;30.97;;
6825;SDS011;3451;52.476;13.316;2023-02-15T06:55:46;88.23;;;30.37;;
6825;SDS011;3451;52.476;13.316;2023-02-15T06:58:12;94.73;;;30.47;;
6825;SDS011;3451;52.476;13.316;2023-02-15T07:00:38;85.73;;;30.90;;
6825;SDS011;3451;52.476;13.316;2023-02-15T07:03:04;102.10;;;30.77;;
6825;SDS011;3451;52.476;13.316;2023-02-15T07:05:32;102.80;;;29.70;;
6825;SDS011;3451;52.476;13.316;2023-02-15T07:07:59;75.03;;;30.83;;
6825;SDS011;3451;52.476;13.316;2023-02-15T07:10:26;107.07;;;29.97;;
6825;SDS011;3451;52.476;13.316;2023-02-15T07:12:53;117.83;;;27.90;;
6825;SDS011;3451;52.476;13.316;2023-02-15T07:15:19;102.57;;;29.73;;
6825;SDS011;3451;52.476;13.316;2023-02-15T07:17:47;88.17;;;29.93;;
6825;SDS011;3451;52.476;13.316;2023-02-15T07:20:14;84.47;;;28.37;;
6825;SDS011;3451;52.476;13.316;2023-02-15T07:22:41;71.37;;;28.77;;
6825;SDS011;3451;52.476;13.316;2023-02-15T07:25:08;98.73;;;29.63;;
6825;SDS011;3451;52.476;13.316;2023-02-15T07:27:34;79.53;;;28.63;;
6825;SDS011;3451;52.476;13.316;2023-02-15T07:30:01;80.23;;;28.07;;
6825;SDS011;3451;52.476;13.316;2023-02-15T07:32:28;73.50;;;27.43;;
6825;SDS011;3451;52.476;13.316;2023-02-15T07:34:55;64.30;;;26.63;;
6825;SDS011;3451;52.476;13.316;2023-02-15T07:37:22;66.80;;;28.67;;
6825;SDS011;3451;52.476;13.316;2023-02-15T07:39:48;83.37;;;27.93;;
6825;SDS011;3451;52.476;13.316;2023-02-15T07:42:14;72.80;;;30.60;;
6825;SDS011;3451;52.476;13.316;2023-02-15T07:44:40;68.47;;;29.03;;
6825;SDS011;3451;52.476;13.316;2023-02-15T07:47:07;67.73;;;26.93;;
6825;SDS011;3451;52.476;13.316;2023-02-15T07:49:33;61.90;;;27.73;;
6825;SDS011;3451;52.476;13.316;2023-02-15T07:52:00;62.57;;;26.77;;
6825;SDS011;3451;52.476;13.316;2023-02-15T07:54:26;92.47;;;27.20;;
6825;SDS011;3451;52.476;13.316;2023-02-15T07:56:52;79.43;;;27.23;;
6825;SDS011;3451;52.476;13.316;2023-02-15T07:59:19;66.73;;;27.10;;
6825;SDS011;3451;52.476;13.316;2023-02-15T08:01:45;76.70;;;26.93;;
6825;SDS011;3451;52.476;13.316;2023-02-15T08:04:11;59.73;;;25.33;;
6825;SDS011;3451;52.476;13.316;2023-02-15T08:06:38;60.73;;;27.47;;
6825;SDS011;3451;52.476;13.316;2023-02-15T08:09:07;66.47;;;27.50;;
6825;SDS011;3451;52.476;13.316;2023-02-15T08:11:35;60.27;;;27.30;;
6825;SDS011;3451;52.476;13.316;2023-02-15T08:14:13;61.97;;;27.40;;
6825;SDS011;3451;52.476;13.316;2023-02-15T08:16:49;57.77;;;27.40;;
6825;SDS011;3451;52.476;13.316;2023-02-15T08:19:17;56.50;;;26.90;;
6825;SDS011;3451;52.476;13.316;2023-02-15T08:21:45;60.20;;;27.07;;
6825;SDS011;3451;52.476;13.316;2023-02-15T08:24:11;59.77;;;27.20;;
6825;SDS011;3451;52.476;13.316;2023-02-15T08:26:39;56.40;;;25.77;;
6825;SDS011;3451;52.476;13.316;2023-02-15T08:29:09;55.20;;;24.97;;
6825;SDS011;3451;52.476;13.316;2023-02-15T08:31:35;54.90;;;24.83;;
6825;SDS011;3451;52.476;13.316;2023-02-15T08:34:04;61.10;;;25.90;;
6825;SDS011;3451;52.476;13.316;2023-02-15T08:36:31;51.37;;;24.03;;
6825;SDS011;3451;52.476;13.316;2023-02-15T08:39:01;55.33;;;25.93;;
6825;SDS011;3451;52.476;13.316;2023-02-15T08:41:32;54.97;;;26.10;;
6825;SDS011;3451;52.476;13.316;2023-02-15T08:44:00;58.93;;;26.00;;
6825;SDS011;3451;52.476;13.316;2023-02-15T08:46:28;44.47;;;22.77;;
6825;SDS011;3451;52.476;13.316;2023-02-15T08:48:55;51.30;;;24.37;;
6825;SDS011;3451;52.476;13.316;2023-02-15T08:51:26;48.43;;;23.90;;
6825;SDS011;3451;52.476;13.316;2023-02-15T08:53:53;43.23;;;21.57;;
6825;SDS011;3451;52.476;13.316;2023-02-15T08:56:29;45.87;;;23.73;;
6825;SDS011;3451;52.476;13.316;2023-02-15T08:58:57;48.07;;;23.77;;
6825;SDS011;3451;52.476;13.316;2023-02-15T09:01:25;47.93;;;23.43;;
6825;SDS011;3451;52.476;13.316;2023-02-15T09:03:55;49.67;;;24.13;;
6825;SDS011;3451;52.476;13.316;2023-02-15T09:06:22;50.10;;;23.77;;
6825;SDS011;3451;52.476;13.316;2023-02-15T09:08:49;49.87;;;24.57;;
6825;SDS011;3451;52.476;13.316;2023-02-15T09:11:17;48.13;;;24.43;;
6825;SDS011;3451;52.476;13.316;2023-02-15T09:13:49;47.30;;;23.40;;
6825;SDS011;3451;52.476;13.316;2023-02-15T09:16:16;47.17;;;22.83;;
6825;SDS011;3451;52.476;13.316;2023-02-15T09:18:45;48.47;;;24.10;;
6825;SDS011;3451;52.476;13.316;2023-02-15T09:21:16;44.57;;;22.97;;
6825;SDS011;3451;52.476;13.316;2023-02-15T09:23:44;45.20;;;22.60;;
6825;SDS011;3451;52.476;13.316;2023-02-15T09:26:11;44.57;;;23.20;;
6825;SDS011;3451;52.476;13.316;2023-02-15T09:28:38;49.53;;;23.43;;
6825;SDS011;3451;52.476;13.316;2023-02-15T09:31:11;47.73;;;23.50;;
6825;SDS011;3451;52.476;13.316;2023-02-15T09:33:38;46.87;;;23.03;;
6825;SDS011;3451;52.476;13.316;2023-02-15T09:36:12;46.57;;;22.90;;
6825;SDS011;3451;52.476;13.316;2023-02-15T09:38:39;44.93;;;22.10;;
6825;SDS011;3451;52.476;13.316;2023-02-15T09:41:09;43.60;;;22.83;;
6825;SDS011;3451;52.476;13.316;2023-02-15T09:43:42;44.67;;;22.63;;
6825;SDS011;3451;52.476;13.316;2023-02-15T09:46:16;43.27;;;23.03;;
6825;SDS011;3451;52.476;13.316;2023-02-15T09:48:45;43.27;;;22.00;;
6825;SDS011;3451;52.476;13.316;2023-02-15T09:51:37;40.93;;;22.17;;
6825;SDS011;3451;52.476;13.316;2023-02-15T09:54:14;43.73;;;22.60;;
6825;SDS011;3451;52.476;13.316;2023-02-15T09:56:51;43.07;;;23.23;;
6825;SDS011;3451;52.476;13.316;2023-02-15T09:59:24;39.63;;;21.13;;
6825;SDS011;3451;52.476;13.316;2023-02-15T10:14:31;42.80;;;22.73;;
6825;SDS011;3451;52.476;13.316;2023-02-15T10:17:08;40.20;;;21.07;;
6825;SDS011;3451;52.476;13.316;2023-02-15T10:22:30;45.60;;;22.97;;
6825;SDS011;3451;52.476;13.316;2023-02-15T10:27:27;39.87;;;22.93;;
6825;SDS011;3451;52.476;13.316;2023-02-15T10:30:11;44.70;;;23.87;;
6825;SDS011;3451;52.476;13.316;2023-02-15T10:32:46;44.30;;;22.90;;
6825;SDS011;3451;52.476;13.316;2023-02-15T10:35:20;44.37;;;24.13;;
6825;SDS011;3451;52.476;13.316;2023-02-15T10:38:00;40.67;;;22.53;;
6825;SDS011;3451;52.476;13.316;2023-02-15T10:40:35;44.47;;;24.30;;
6825;SDS011;3451;52.476;13.316;2023-02-15T10:45:49;43.83;;;23.20;;
6825;SDS011;3451;52.476;13.316;2023-02-15T10:48:52;45.67;;;23.73;;
6825;SDS011;3451;52.476;13.316;2023-02-15T10:51:19;41.70;;;23.83;;
6825;SDS011;3451;52.476;13.316;2023-02-15T10:54:02;43.40;;;24.83;;
6825;SDS011;3451;52.476;13.316;2023-02-15T10:56:39;43.77;;;23.83;;
6825;SDS011;3451;52.476;13.316;2023-02-15T10:59:13;39.80;;;23.57;;
6825;SDS011;3451;52.476;13.316;2023-02-15T11:01:47;45.37;;;23.87;;
6825;SDS011;3451;52.476;13.316;2023-02-15T11:04:30;41.37;;;23.40;;
6825;SDS011;3451;52.476;13.316;2023-02-15T11:07:02;44.73;;;23.67;;
6825;SDS011;3451;52.476;13.316;2023-02-15T11:09:38;42.90;;;23.90;;
6825;SDS011;3451;52.476;13.316;2023-02-15T11:12:08;41.40;;;23.30;;
6825;SDS011;3451;52.476;13.316;2023-02-15T11:14:44;39.77;;;23.10;;
6825;SDS011;3451;52.476;13.316;2023-02-15T11:17:14;43.37;;;22.43;;
6825;SDS011;3451;52.476;13.316;2023-02-15T11:19:44;37.70;;;20.90;;
6825;SDS011;3451;52.476;13.316;2023-02-15T11:22:14;36.23;;;21.27;;
6825;SDS011;3451;52.476;13.316;2023-02-15T11:24:43;34.07;;;20.07;;
6825;SDS011;3451;52.476;13.316;2023-02-15T11:29:41;37.40;;;20.60;;
6825;SDS011;3451;52.476;13.316;2023-02-15T11:32:17;35.97;;;19.80;;
6825;SDS011;3451;52.476;13.316;2023-02-15T11:34:50;33.17;;;20.70;;
6825;SDS011;3451;52.476;13.316;2023-02-15T11:37:19;39.00;;;20.60;;
6825;SDS011;3451;52.476;13.316;2023-02-15T11:39:46;38.97;;;20.73;;
6825;SDS011;3451;52.476;13.316;2023-02-15T11:42:21;34.90;;;20.40;;
6825;SDS011;3451;52.476;13.316;2023-02-15T11:44:59;33.43;;;19.37;;
6825;SDS011;3451;52.476;13.316;2023-02-15T11:47:28;31.43;;;18.77;;
6825;SDS011;3451;52.476;13.316;2023-02-15T11:49:54;34.80;;;21.07;;
6825;SDS011;3451;52.476;13.316;2023-02-15T11:52:20;37.73;;;20.60;;
6825;SDS011;3451;52.476;13.316;2023-02-15T11:54:48;31.87;;;18.70;;
6825;SDS011;3451;52.476;13.316;2023-02-15T11:57:36;32.63;;;19.30;;
6825;SDS011;3451;52.476;13.316;2023-02-15T12:00:14;33.30;;;19.20;;
6825;SDS011;3451;52.476;13.316;2023-02-15T12:02:45;32.67;;;20.03;;
6825;SDS011;3451;52.476;13.316;2023-02-15T12:05:14;34.33;;;20.40;;
6825;SDS011;3451;52.476;13.316;2023-02-15T12:07:42;33.23;;;20.47;;
6825;SDS011;3451;52.476;13.316;2023-02-15T12:10:17;33.20;;;20.03;;
6825;SDS011;3451;52.476;13.316;2023-02-15T12:12:44;34.83;;;19.47;;
6825;SDS011;3451;52.476;13.316;2023-02-15T12:15:11;30.43;;;18.73;;
6825;SDS011;3451;52.476;13.316;2023-02-15T12:17:53;36.87;;;19.60;;
6825;SDS011;3451;52.476;13.316;2023-02-15T12:20:30;37.13;;;19.70;;
6825;SDS011;3451;52.476;13.316;2023-02-15T12:23:04;33.93;;;20.23;;
6825;SDS011;3451;52.476;13.316;2023-02-15T12:27:59;35.47;;;20.23;;
6825;SDS011;3451;52.476;13.316;2023-02-15T12:30:30;33.27;;;18.90;;
6825;SDS011;3451;52.476;13.316;2023-02-15T12:32:59;34.30;;;19.37;;
6825;SDS011;3451;52.476;13.316;2023-02-15T12:35:31;33.50;;;19.30;;
6825;SDS011;3451;52.476;13.316;2023-02-15T12:40:36;37.53;;;19.47;;
6825;SDS011;3451;52.476;13.316;2023-02-15T12:43:03;34.37;;;19.93;;
6825;SDS011;3451;52.476;13.316;2023-02-15T12:45:36;32.10;;;20.00;;
6825;SDS011;3451;52.476;13.316;2023-02-15T12:48:15;33.37;;;19.60;;
6825;SDS011;3451;52.476;13.316;2023-02-15T12:50:43;33.53;;;19.60;;
6825;SDS011;3451;52.476;13.316;2023-02-15T12:53:14;30.37;;;18.13;;
6825;SDS011;3451;52.476;13.316;2023-02-15T12:55:51;34.30;;;19.00;;
6825;SDS011;3451;52.476;13.316;2023-02-15T12:58:19;33.80;;;20.47;;
6825;SDS011;3451;52.476;13.316;2023-02-15T13:00:46;33.67;;;19.23;;
6825;SDS011;3451;52.476;13.316;2023-02-15T13:03:19;30.97;;;19.23;;
6825;SDS011;3451;52.476;13.316;2023-02-15T13:05:47;30.40;;;18.13;;
6825;SDS011;3451;52.476;13.316;2023-02-15T13:08:19;29.23;;;18.20;;
6825;SDS011;3451;52.476;13.316;2023-02-15T13:10:56;28.97;;;17.73;;
6825;SDS011;3451;52.476;13.316;2023-02-15T13:13:24;31.33;;;18.40;;
6825;SDS011;3451;52.476;13.316;2023-02-15T13:15:52;32.93;;;18.50;;
6825;SDS011;3451;52.476;13.316;2023-02-15T13:20:51;28.97;;;17.27;;
6825;SDS011;3451;52.476;13.316;2023-02-15T13:23:24;31.60;;;17.70;;
6825;SDS011;3451;52.476;13.316;2023-02-15T13:25:54;32.40;;;18.40;;
6825;SDS011;3451;52.476;13.316;2023-02-15T13:28:22;27.93;;;17.83;;
6825;SDS011;3451;52.476;13.316;2023-02-15T13:30:50;28.13;;;17.00;;
6825;SDS011;3451;52.476;13.316;2023-02-15T13:33:31;29.30;;;17.90;;
6825;SDS011;3451;52.476;13.316;2023-02-15T13:36:04;28.33;;;16.23;;
6825;SDS011;3451;52.476;13.316;2023-02-15T13:41:09;26.07;;;15.93;;
6825;SDS011;3451;52.476;13.316;2023-02-15T13:43:47;26.30;;;16.37;;
6825;SDS011;3451;52.476;13.316;2023-02-15T13:46:18;26.50;;;16.47;;
6825;SDS011;3451;52.476;13.316;2023-02-15T13:59:38;24.30;;;15.80;;
6825;SDS011;3451;52.476;13.316;2023-02-15T14:10:06;27.73;;;16.57;;
6825;SDS011;3451;52.476;13.316;2023-02-15T14:17:53;24.93;;;16.00;;
6825;SDS011;3451;52.476;13.316;2023-02-15T14:25:38;27.93;;;16.40;;
6825;SDS011;3451;52.476;13.316;2023-02-15T14:30:36;24.37;;;15.57;;
6825;SDS011;3451;52.476;13.316;2023-02-15T14:33:05;33.60;;;15.77;;
6825;SDS011;3451;52.476;13.316;2023-02-15T14:35:32;27.90;;;16.07;;
6825;SDS011;3451;52.476;13.316;2023-02-15T14:43:32;25.73;;;15.30;;
6825;SDS011;3451;52.476;13.316;2023-02-15T14:48:36;21.67;;;14.13;;
6825;SDS011;3451;52.476;13.316;2023-02-15T14:51:02;24.47;;;14.77;;
6825;SDS011;3451;52.476;13.316;2023-02-15T14:56:06;25.60;;;14.67;;
6825;SDS011;3451;52.476;13.316;2023-02-15T14:58:38;26.03;;;14.73;;
6825;SDS011;3451;52.476;13.316;2023-02-15T15:01:05;26.47;;;15.20;;
6825;SDS011;3451;52.476;13.316;2023-02-15T15:03:32;23.87;;;14.93;;
6825;SDS011;3451;52.476;13.316;2023-02-15T15:05:59;23.10;;;14.90;;
6825;SDS011;3451;52.476;13.316;2023-02-15T15:08:32;25.60;;;15.17;;
6825;SDS011;3451;52.476;13.316;2023-02-15T15:14:08;23.60;;;13.80;;
6825;SDS011;3451;52.476;13.316;2023-02-15T15:19:04;18.67;;;12.60;;
6825;SDS011;3451;52.476;13.316;2023-02-15T15:29:47;21.13;;;12.23;;
6825;SDS011;3451;52.476;13.316;2023-02-15T15:32:14;22.50;;;13.03;;
6825;SDS011;3451;52.476;13.316;2023-02-15T15:34:50;23.73;;;12.73;;
6825;SDS011;3451;52.476;13.316;2023-02-15T15:42:30;23.07;;;12.63;;
6825;SDS011;3451;52.476;13.316;2023-02-15T15:47:42;16.57;;;11.27;;
6825;SDS011;3451;52.476;13.316;2023-02-15T15:50:19;19.13;;;11.37;;
6825;SDS011;3451;52.476;13.316;2023-02-15T15:52:49;18.40;;;10.90;;
6825;SDS011;3451;52.476;13.316;2023-02-15T15:55:17;17.03;;;11.20;;
6825;SDS011;3451;52.476;13.316;2023-02-15T15:57:44;15.73;;;10.27;;
6825;SDS011;3451;52.476;13.316;2023-02-15T16:03:04;15.37;;;10.03;;
6825;SDS011;3451;52.476;13.316;2023-02-15T16:05:34;17.93;;;10.13;;
6825;SDS011;3451;52.476;13.316;2023-02-15T16:08:01;14.30;;;9.07;;
6825;SDS011;3451;52.476;13.316;2023-02-15T16:10:27;18.90;;;11.00;;
6825;SDS011;3451;52.476;13.316;2023-02-15T16:12:54;20.50;;;10.00;;
6825;SDS011;3451;52.476;13.316;2023-02-15T16:15:22;16.73;;;10.00;;
6825;SDS011;3451;52.476;13.316;2023-02-15T16:17:53;18.67;;;9.60;;
6825;SDS011;3451;52.476;13.316;2023-02-15T16:20:28;16.93;;;10.30;;
6825;SDS011;3451;52.476;13.316;2023-02-15T16:25:40;16.63;;;10.90;;
6825;SDS011;3451;52.476;13.316;2023-02-15T16:28:10;15.40;;;10.23;;
6825;SDS011;3451;52.476;13.316;2023-02-15T16:30:38;17.03;;;9.93;;
6825;SDS011;3451;52.476;13.316;2023-02-15T16:33:09;17.70;;;10.20;;
6825;SDS011;3451;52.476;13.316;2023-02-15T16:35:37;17.60;;;10.63;;
6825;SDS011;3451;52.476;13.316;2023-02-15T16:38:04;15.50;;;9.60;;
6825;SDS011;3451;52.476;13.316;2023-02-15T16:40:52;15.20;;;9.60;;
6825;SDS011;3451;52.476;13.316;2023-02-15T16:43:20;15.93;;;9.63;;
6825;SDS011;3451;52.476;13.316;2023-02-15T16:45:49;18.03;;;10.37;;
6825;SDS011;3451;52.476;13.316;2023-02-15T16:48:17;16.67;;;9.90;;
6825;SDS011;3451;52.476;13.316;2023-02-15T16:50:49;14.63;;;9.43;;
6825;SDS011;3451;52.476;13.316;2023-02-15T16:53:18;15.47;;;9.97;;
6825;SDS011;3451;52.476;13.316;2023-02-15T16:55:45;15.67;;;10.00;;
6825;SDS011;3451;52.476;13.316;2023-02-15T16:58:15;16.67;;;10.67;;
6825;SDS011;3451;52.476;13.316;2023-02-15T17:00:42;15.20;;;9.67;;
6825;SDS011;3451;52.476;13.316;2023-02-15T17:05:51;16.53;;;10.43;;